sensor_id;sensor_type;location;lat;lon;timestamp;P1;durP1;ratioP1;P2;durP2;ratioP2
19167;SDS011;9716;53.114;18.040;2022-12-05T00:02:13;44.60;;;18.63;;
19167;SDS011;9716;53.114;18.040;2022-12-05T00:04:41;51.90;;;19.40;;
19167;SDS011;9716;53.114;18.040;2022-12-05T00:07:11;45.87;;;18.00;;
19167;SDS011;9716;53.114;18.040;2022-12-05T00:09:39;34.63;;;16.47;;
19167;SDS011;9716;53.114;18.040;2022-12-05T00:12:08;46.40;;;17.93;;
19167;SDS011;9716;53.114;18.040;2022-12-05T00:14:38;43.67;;;17.60;;
19167;SDS011;9716;53.114;18.040;2022-12-05T00:17:08;46.53;;;17.67;;
19167;SDS011;9716;53.114;18.040;2022-12-05T00:19:36;40.33;;;17.87;;
19167;SDS011;9716;53.114;18.040;2022-12-05T00:22:06;47.83;;;16.40;;
19167;SDS011;9716;53.114;18.040;2022-12-05T00:24:34;39.73;;;17.97;;
19167;SDS011;9716;53.114;18.040;2022-12-05T00:27:03;37.03;;;16.13;;
19167;SDS011;9716;53.114;18.040;2022-12-05T00:29:31;39.50;;;15.17;;
19167;SDS011;9716;53.114;18.040;2022-12-05T00:32:00;39.40;;;16.13;;
19167;SDS011;9716;53.114;18.040;2022-12-05T00:34:30;51.93;;;18.70;;
19167;SDS011;9716;53.114;18.040;2022-12-05T00:36:58;38.40;;;17.03;;
19167;SDS011;9716;53.114;18.040;2022-12-05T00:39:27;39.00;;;17.03;;
19167;SDS011;9716;53.114;18.040;2022-12-05T00:41:55;43.43;;;17.83;;
19167;SDS011;9716;53.114;18.040;2022-12-05T00:44:24;42.40;;;17.90;;
19167;SDS011;9716;53.114;18.040;2022-12-05T00:46:53;53.20;;;19.50;;
19167;SDS011;9716;53.114;18.040;2022-12-05T00:49:21;51.27;;;19.03;;
19167;SDS011;9716;53.114;18.040;2022-12-05T00:51:51;44.60;;;19.03;;
19167;SDS011;9716;53.114;18.040;2022-12-05T00:54:20;37.67;;;16.70;;
19167;SDS011;9716;53.114;18.040;2022-12-05T00:56:48;48.90;;;18.90;;
19167;SDS011;9716;53.114;18.040;2022-12-05T00:59:18;55.97;;;18.83;;
19167;SDS011;9716;53.114;18.040;2022-12-05T01:01:47;53.00;;;20.27;;
19167;SDS011;9716;53.114;18.040;2022-12-05T01:04:18;65.57;;;19.87;;
19167;SDS011;9716;53.114;18.040;2022-12-05T01:06:48;55.03;;;20.33;;
19167;SDS011;9716;53.114;18.040;2022-12-05T01:09:22;53.90;;;19.83;;
19167;SDS011;9716;53.114;18.040;2022-12-05T01:11:52;44.80;;;19.30;;
19167;SDS011;9716;53.114;18.040;2022-12-05T01:14:22;52.63;;;20.43;;
19167;SDS011;9716;53.114;18.040;2022-12-05T01:16:53;42.60;;;19.47;;
19167;SDS011;9716;53.114;18.040;2022-12-05T01:19:23;46.90;;;21.17;;
19167;SDS011;9716;53.114;18.040;2022-12-05T01:21:53;48.40;;;19.97;;
19167;SDS011;9716;53.114;18.040;2022-12-05T01:24:24;52.57;;;20.63;;
19167;SDS011;9716;53.114;18.040;2022-12-05T01:26:54;42.43;;;19.20;;
19167;SDS011;9716;53.114;18.040;2022-12-05T01:29:23;46.97;;;19.90;;
19167;SDS011;9716;53.114;18.040;2022-12-05T01:31:52;40.40;;;18.50;;
19167;SDS011;9716;53.114;18.040;2022-12-05T01:34:21;53.10;;;20.57;;
19167;SDS011;9716;53.114;18.040;2022-12-05T01:36:50;51.73;;;20.37;;
19167;SDS011;9716;53.114;18.040;2022-12-05T01:39:19;46.30;;;18.70;;
19167;SDS011;9716;53.114;18.040;2022-12-05T01:41:49;49.90;;;18.07;;
19167;SDS011;9716;53.114;18.040;2022-12-05T01:47:24;40.13;;;17.00;;
19167;SDS011;9716;53.114;18.040;2022-12-05T01:49:55;37.13;;;17.20;;
19167;SDS011;9716;53.114;18.040;2022-12-05T01:52:26;47.50;;;18.00;;
19167;SDS011;9716;53.114;18.040;2022-12-05T01:55:07;54.17;;;20.03;;
19167;SDS011;9716;53.114;18.040;2022-12-05T01:57:41;47.20;;;20.53;;
19167;SDS011;9716;53.114;18.040;2022-12-05T02:00:11;45.23;;;18.63;;
19167;SDS011;9716;53.114;18.040;2022-12-05T02:02:44;40.17;;;18.30;;
19167;SDS011;9716;53.114;18.040;2022-12-05T02:05:17;41.90;;;17.57;;
19167;SDS011;9716;53.114;18.040;2022-12-05T02:07:48;50.57;;;18.50;;
19167;SDS011;9716;53.114;18.040;2022-12-05T02:10:17;49.93;;;20.23;;
19167;SDS011;9716;53.114;18.040;2022-12-05T02:12:48;53.67;;;16.80;;
19167;SDS011;9716;53.114;18.040;2022-12-05T02:15:21;36.30;;;16.90;;
19167;SDS011;9716;53.114;18.040;2022-12-05T02:18:03;45.67;;;17.17;;
19167;SDS011;9716;53.114;18.040;2022-12-05T02:20:43;38.53;;;16.97;;
19167;SDS011;9716;53.114;18.040;2022-12-05T02:26:37;56.97;;;18.77;;
19167;SDS011;9716;53.114;18.040;2022-12-05T02:29:25;44.40;;;18.93;;
19167;SDS011;9716;53.114;18.040;2022-12-05T02:32:22;40.73;;;18.93;;
19167;SDS011;9716;53.114;18.040;2022-12-05T02:35:02;44.63;;;18.40;;
19167;SDS011;9716;53.114;18.040;2022-12-05T02:37:39;47.03;;;20.93;;
19167;SDS011;9716;53.114;18.040;2022-12-05T02:40:13;40.83;;;19.07;;
19167;SDS011;9716;53.114;18.040;2022-12-05T02:42:48;47.90;;;20.33;;
19167;SDS011;9716;53.114;18.040;2022-12-05T02:45:22;40.57;;;17.97;;
19167;SDS011;9716;53.114;18.040;2022-12-05T02:47:55;46.00;;;19.23;;
19167;SDS011;9716;53.114;18.040;2022-12-05T02:50:27;34.23;;;16.20;;
19167;SDS011;9716;53.114;18.040;2022-12-05T02:52:59;36.53;;;17.43;;
19167;SDS011;9716;53.114;18.040;2022-12-05T02:55:31;39.03;;;17.23;;
19167;SDS011;9716;53.114;18.040;2022-12-05T02:58:02;43.70;;;18.10;;
19167;SDS011;9716;53.114;18.040;2022-12-05T03:00:34;38.33;;;16.37;;
19167;SDS011;9716;53.114;18.040;2022-12-05T03:03:10;37.33;;;17.10;;
19167;SDS011;9716;53.114;18.040;2022-12-05T03:05:42;42.30;;;16.20;;
19167;SDS011;9716;53.114;18.040;2022-12-05T03:08:16;42.60;;;17.83;;
19167;SDS011;9716;53.114;18.040;2022-12-05T03:10:49;28.07;;;14.93;;
19167;SDS011;9716;53.114;18.040;2022-12-05T03:13:20;33.53;;;13.67;;
19167;SDS011;9716;53.114;18.040;2022-12-05T03:15:55;33.43;;;14.80;;
19167;SDS011;9716;53.114;18.040;2022-12-05T03:18:31;30.43;;;13.33;;
19167;SDS011;9716;53.114;18.040;2022-12-05T03:21:07;41.33;;;16.20;;
19167;SDS011;9716;53.114;18.040;2022-12-05T03:23:41;35.97;;;16.57;;
19167;SDS011;9716;53.114;18.040;2022-12-05T03:26:15;36.43;;;15.23;;
19167;SDS011;9716;53.114;18.040;2022-12-05T03:28:53;34.53;;;15.63;;
19167;SDS011;9716;53.114;18.040;2022-12-05T03:31:26;37.97;;;14.37;;
19167;SDS011;9716;53.114;18.040;2022-12-05T03:34:03;33.83;;;15.93;;
19167;SDS011;9716;53.114;18.040;2022-12-05T03:36:36;38.50;;;17.17;;
19167;SDS011;9716;53.114;18.040;2022-12-05T03:39:07;35.80;;;15.90;;
19167;SDS011;9716;53.114;18.040;2022-12-05T03:41:44;34.47;;;14.80;;
19167;SDS011;9716;53.114;18.040;2022-12-05T03:44:19;39.93;;;15.77;;
19167;SDS011;9716;53.114;18.040;2022-12-05T03:46:51;34.47;;;16.63;;
19167;SDS011;9716;53.114;18.040;2022-12-05T03:49:26;41.90;;;17.43;;
19167;SDS011;9716;53.114;18.040;2022-12-05T03:52:02;49.33;;;18.53;;
19167;SDS011;9716;53.114;18.040;2022-12-05T03:54:36;40.13;;;18.83;;
19167;SDS011;9716;53.114;18.040;2022-12-05T03:57:09;49.20;;;18.07;;
19167;SDS011;9716;53.114;18.040;2022-12-05T03:59:43;38.53;;;18.70;;
19167;SDS011;9716;53.114;18.040;2022-12-05T04:02:18;39.70;;;19.47;;
19167;SDS011;9716;53.114;18.040;2022-12-05T04:04:55;44.77;;;18.43;;
19167;SDS011;9716;53.114;18.040;2022-12-05T04:07:27;45.33;;;18.40;;
19167;SDS011;9716;53.114;18.040;2022-12-05T04:09:58;36.63;;;17.90;;
19167;SDS011;9716;53.114;18.040;2022-12-05T04:12:30;30.47;;;14.80;;
19167;SDS011;9716;53.114;18.040;2022-12-05T04:15:03;34.53;;;15.77;;
19167;SDS011;9716;53.114;18.040;2022-12-05T04:17:38;46.47;;;16.90;;
19167;SDS011;9716;53.114;18.040;2022-12-05T04:20:21;42.47;;;17.77;;
19167;SDS011;9716;53.114;18.040;2022-12-05T04:23:12;37.93;;;17.03;;
19167;SDS011;9716;53.114;18.040;2022-12-05T04:25:43;42.97;;;17.50;;
19167;SDS011;9716;53.114;18.040;2022-12-05T04:28:20;43.33;;;18.00;;
19167;SDS011;9716;53.114;18.040;2022-12-05T04:30:57;41.00;;;16.10;;
19167;SDS011;9716;53.114;18.040;2022-12-05T04:33:33;33.93;;;16.73;;
19167;SDS011;9716;53.114;18.040;2022-12-05T04:36:11;26.10;;;14.30;;
19167;SDS011;9716;53.114;18.040;2022-12-05T04:38:44;28.70;;;13.73;;
19167;SDS011;9716;53.114;18.040;2022-12-05T04:41:18;28.60;;;12.40;;
19167;SDS011;9716;53.114;18.040;2022-12-05T04:43:51;34.57;;;14.90;;
19167;SDS011;9716;53.114;18.040;2022-12-05T04:46:22;32.33;;;13.87;;
19167;SDS011;9716;53.114;18.040;2022-12-05T04:48:52;33.20;;;13.33;;
19167;SDS011;9716;53.114;18.040;2022-12-05T04:51:27;29.50;;;15.63;;
19167;SDS011;9716;53.114;18.040;2022-12-05T04:54:01;35.40;;;14.60;;
19167;SDS011;9716;53.114;18.040;2022-12-05T04:56:35;29.57;;;13.73;;
19167;SDS011;9716;53.114;18.040;2022-12-05T04:59:06;32.03;;;14.03;;
19167;SDS011;9716;53.114;18.040;2022-12-05T05:01:35;31.93;;;14.63;;
19167;SDS011;9716;53.114;18.040;2022-12-05T05:04:08;33.57;;;14.80;;
19167;SDS011;9716;53.114;18.040;2022-12-05T05:06:40;41.57;;;16.57;;
19167;SDS011;9716;53.114;18.040;2022-12-05T05:09:10;34.40;;;17.10;;
19167;SDS011;9716;53.114;18.040;2022-12-05T05:11:38;38.43;;;17.60;;
19167;SDS011;9716;53.114;18.040;2022-12-05T05:14:07;44.23;;;18.03;;
19167;SDS011;9716;53.114;18.040;2022-12-05T05:16:36;41.27;;;18.77;;
19167;SDS011;9716;53.114;18.040;2022-12-05T05:19:07;39.77;;;18.13;;
19167;SDS011;9716;53.114;18.040;2022-12-05T05:21:38;47.70;;;19.00;;
19167;SDS011;9716;53.114;18.040;2022-12-05T05:24:10;43.50;;;17.57;;
19167;SDS011;9716;53.114;18.040;2022-12-05T05:26:39;45.67;;;17.30;;
19167;SDS011;9716;53.114;18.040;2022-12-05T05:29:09;38.80;;;16.07;;
19167;SDS011;9716;53.114;18.040;2022-12-05T05:31:38;42.60;;;18.00;;
19167;SDS011;9716;53.114;18.040;2022-12-05T05:34:08;37.93;;;17.33;;
19167;SDS011;9716;53.114;18.040;2022-12-05T05:36:37;46.10;;;18.87;;
19167;SDS011;9716;53.114;18.040;2022-12-05T05:39:09;35.77;;;17.27;;
19167;SDS011;9716;53.114;18.040;2022-12-05T05:41:41;47.10;;;19.20;;
19167;SDS011;9716;53.114;18.040;2022-12-05T05:44:10;32.03;;;16.23;;
19167;SDS011;9716;53.114;18.040;2022-12-05T05:46:39;42.23;;;17.30;;
19167;SDS011;9716;53.114;18.040;2022-12-05T05:49:08;39.57;;;15.80;;
19167;SDS011;9716;53.114;18.040;2022-12-05T05:51:37;35.43;;;16.43;;
19167;SDS011;9716;53.114;18.040;2022-12-05T05:54:06;35.60;;;16.80;;
19167;SDS011;9716;53.114;18.040;2022-12-05T05:56:35;39.93;;;17.17;;
19167;SDS011;9716;53.114;18.040;2022-12-05T05:59:06;43.37;;;16.63;;
19167;SDS011;9716;53.114;18.040;2022-12-05T06:01:34;43.27;;;18.00;;
19167;SDS011;9716;53.114;18.040;2022-12-05T06:04:03;41.80;;;17.57;;
19167;SDS011;9716;53.114;18.040;2022-12-05T06:06:33;36.70;;;18.33;;
19167;SDS011;9716;53.114;18.040;2022-12-05T06:09:04;45.33;;;18.87;;
19167;SDS011;9716;53.114;18.040;2022-12-05T06:11:33;49.40;;;20.70;;
19167;SDS011;9716;53.114;18.040;2022-12-05T06:14:03;45.50;;;19.20;;
19167;SDS011;9716;53.114;18.040;2022-12-05T06:16:32;42.40;;;18.10;;
19167;SDS011;9716;53.114;18.040;2022-12-05T06:19:01;50.07;;;17.57;;
19167;SDS011;9716;53.114;18.040;2022-12-05T06:21:29;38.97;;;18.47;;
19167;SDS011;9716;53.114;18.040;2022-12-05T06:23:58;43.20;;;18.57;;
19167;SDS011;9716;53.114;18.040;2022-12-05T06:26:26;43.50;;;16.50;;
19167;SDS011;9716;53.114;18.040;2022-12-05T06:28:55;33.90;;;17.40;;
19167;SDS011;9716;53.114;18.040;2022-12-05T06:31:25;35.50;;;17.07;;
19167;SDS011;9716;53.114;18.040;2022-12-05T06:33:58;41.00;;;17.30;;
19167;SDS011;9716;53.114;18.040;2022-12-05T06:36:29;50.93;;;19.70;;
19167;SDS011;9716;53.114;18.040;2022-12-05T06:38:58;57.87;;;19.70;;
19167;SDS011;9716;53.114;18.040;2022-12-05T06:41:27;45.33;;;19.57;;
19167;SDS011;9716;53.114;18.040;2022-12-05T06:43:56;47.57;;;19.87;;
19167;SDS011;9716;53.114;18.040;2022-12-05T06:46:29;46.87;;;18.07;;
19167;SDS011;9716;53.114;18.040;2022-12-05T06:48:58;49.87;;;21.43;;
19167;SDS011;9716;53.114;18.040;2022-12-05T06:51:27;45.40;;;22.00;;
19167;SDS011;9716;53.114;18.040;2022-12-05T06:53:55;51.33;;;21.13;;
19167;SDS011;9716;53.114;18.040;2022-12-05T06:56:24;53.43;;;22.60;;
19167;SDS011;9716;53.114;18.040;2022-12-05T06:58:53;38.77;;;18.47;;
19167;SDS011;9716;53.114;18.040;2022-12-05T07:01:22;55.53;;;20.83;;
19167;SDS011;9716;53.114;18.040;2022-12-05T07:04:12;47.90;;;21.23;;
19167;SDS011;9716;53.114;18.040;2022-12-05T07:06:43;44.90;;;21.67;;
19167;SDS011;9716;53.114;18.040;2022-12-05T07:09:17;54.17;;;18.87;;
19167;SDS011;9716;53.114;18.040;2022-12-05T07:11:47;52.53;;;20.47;;
19167;SDS011;9716;53.114;18.040;2022-12-05T07:14:16;42.73;;;18.10;;
19167;SDS011;9716;53.114;18.040;2022-12-05T07:17:05;43.63;;;20.67;;
19167;SDS011;9716;53.114;18.040;2022-12-05T07:19:35;38.20;;;20.33;;
19167;SDS011;9716;53.114;18.040;2022-12-05T07:22:04;45.50;;;19.33;;
19167;SDS011;9716;53.114;18.040;2022-12-05T07:24:41;44.30;;;19.10;;
19167;SDS011;9716;53.114;18.040;2022-12-05T07:27:10;43.07;;;18.47;;
19167;SDS011;9716;53.114;18.040;2022-12-05T07:29:39;42.90;;;18.97;;
19167;SDS011;9716;53.114;18.040;2022-12-05T07:32:07;39.60;;;17.77;;
19167;SDS011;9716;53.114;18.040;2022-12-05T07:34:38;37.53;;;16.37;;
19167;SDS011;9716;53.114;18.040;2022-12-05T07:37:07;46.57;;;19.87;;
19167;SDS011;9716;53.114;18.040;2022-12-05T07:39:36;45.27;;;18.07;;
19167;SDS011;9716;53.114;18.040;2022-12-05T07:42:05;35.57;;;16.77;;
19167;SDS011;9716;53.114;18.040;2022-12-05T07:44:34;43.23;;;16.03;;
19167;SDS011;9716;53.114;18.040;2022-12-05T07:47:02;44.77;;;17.20;;
19167;SDS011;9716;53.114;18.040;2022-12-05T07:49:31;51.10;;;17.60;;
19167;SDS011;9716;53.114;18.040;2022-12-05T07:52:01;39.63;;;16.93;;
19167;SDS011;9716;53.114;18.040;2022-12-05T07:54:30;40.80;;;15.50;;
19167;SDS011;9716;53.114;18.040;2022-12-05T07:56:59;36.17;;;15.63;;
19167;SDS011;9716;53.114;18.040;2022-12-05T07:59:28;37.87;;;16.00;;
19167;SDS011;9716;53.114;18.040;2022-12-05T08:01:56;35.93;;;14.70;;
19167;SDS011;9716;53.114;18.040;2022-12-05T08:04:25;34.93;;;14.93;;
19167;SDS011;9716;53.114;18.040;2022-12-05T08:06:54;36.00;;;14.60;;
19167;SDS011;9716;53.114;18.040;2022-12-05T08:09:24;33.07;;;15.27;;
19167;SDS011;9716;53.114;18.040;2022-12-05T08:11:53;36.80;;;14.83;;
19167;SDS011;9716;53.114;18.040;2022-12-05T08:14:22;34.37;;;14.33;;
19167;SDS011;9716;53.114;18.040;2022-12-05T08:16:50;33.23;;;15.37;;
19167;SDS011;9716;53.114;18.040;2022-12-05T08:19:19;40.87;;;16.43;;
19167;SDS011;9716;53.114;18.040;2022-12-05T08:21:48;45.83;;;19.37;;
19167;SDS011;9716;53.114;18.040;2022-12-05T08:24:18;55.83;;;20.47;;
19167;SDS011;9716;53.114;18.040;2022-12-05T08:26:48;56.27;;;20.40;;
19167;SDS011;9716;53.114;18.040;2022-12-05T08:29:19;61.43;;;22.23;;
19167;SDS011;9716;53.114;18.040;2022-12-05T08:31:49;57.00;;;21.57;;
19167;SDS011;9716;53.114;18.040;2022-12-05T08:34:19;64.17;;;24.30;;
19167;SDS011;9716;53.114;18.040;2022-12-05T08:36:48;45.47;;;21.43;;
19167;SDS011;9716;53.114;18.040;2022-12-05T08:39:17;51.47;;;22.13;;
19167;SDS011;9716;53.114;18.040;2022-12-05T08:41:48;58.63;;;22.93;;
19167;SDS011;9716;53.114;18.040;2022-12-05T08:44:16;56.60;;;21.30;;
19167;SDS011;9716;53.114;18.040;2022-12-05T08:46:46;70.50;;;23.80;;
19167;SDS011;9716;53.114;18.040;2022-12-05T08:49:16;52.20;;;20.97;;
19167;SDS011;9716;53.114;18.040;2022-12-05T08:51:46;52.53;;;21.53;;
19167;SDS011;9716;53.114;18.040;2022-12-05T08:54:14;64.23;;;20.60;;
19167;SDS011;9716;53.114;18.040;2022-12-05T08:56:43;49.43;;;18.87;;
19167;SDS011;9716;53.114;18.040;2022-12-05T08:59:13;47.57;;;20.77;;
19167;SDS011;9716;53.114;18.040;2022-12-05T09:01:42;53.20;;;20.23;;
19167;SDS011;9716;53.114;18.040;2022-12-05T09:04:11;54.20;;;20.90;;
19167;SDS011;9716;53.114;18.040;2022-12-05T09:06:39;45.23;;;20.53;;
19167;SDS011;9716;53.114;18.040;2022-12-05T09:09:09;61.00;;;20.50;;
19167;SDS011;9716;53.114;18.040;2022-12-05T09:11:39;43.13;;;19.90;;
19167;SDS011;9716;53.114;18.040;2022-12-05T09:14:14;42.63;;;19.53;;
19167;SDS011;9716;53.114;18.040;2022-12-05T09:16:44;49.07;;;19.17;;
19167;SDS011;9716;53.114;18.040;2022-12-05T09:19:14;60.20;;;21.10;;
19167;SDS011;9716;53.114;18.040;2022-12-05T09:21:46;42.83;;;19.77;;
19167;SDS011;9716;53.114;18.040;2022-12-05T09:24:15;47.63;;;19.33;;
19167;SDS011;9716;53.114;18.040;2022-12-05T09:26:44;39.30;;;19.57;;
19167;SDS011;9716;53.114;18.040;2022-12-05T09:29:15;50.63;;;18.63;;
19167;SDS011;9716;53.114;18.040;2022-12-05T09:31:46;41.47;;;17.33;;
19167;SDS011;9716;53.114;18.040;2022-12-05T09:34:17;41.33;;;17.77;;
19167;SDS011;9716;53.114;18.040;2022-12-05T09:36:46;43.37;;;18.07;;
19167;SDS011;9716;53.114;18.040;2022-12-05T09:39:38;40.17;;;18.43;;
19167;SDS011;9716;53.114;18.040;2022-12-05T09:42:19;43.27;;;16.87;;
19167;SDS011;9716;53.114;18.040;2022-12-05T09:45:03;35.27;;;15.93;;
19167;SDS011;9716;53.114;18.040;2022-12-05T09:47:53;32.23;;;16.00;;
19167;SDS011;9716;53.114;18.040;2022-12-05T09:50:26;37.07;;;16.57;;
19167;SDS011;9716;53.114;18.040;2022-12-05T09:53:01;40.40;;;16.77;;
19167;SDS011;9716;53.114;18.040;2022-12-05T09:55:44;37.97;;;16.80;;
19167;SDS011;9716;53.114;18.040;2022-12-05T09:58:26;45.47;;;17.00;;
19167;SDS011;9716;53.114;18.040;2022-12-05T10:01:03;37.90;;;17.43;;
19167;SDS011;9716;53.114;18.040;2022-12-05T10:03:42;39.53;;;16.23;;
19167;SDS011;9716;53.114;18.040;2022-12-05T10:06:17;45.73;;;17.57;;
19167;SDS011;9716;53.114;18.040;2022-12-05T10:08:55;42.97;;;17.00;;
19167;SDS011;9716;53.114;18.040;2022-12-05T10:11:35;51.77;;;17.13;;
19167;SDS011;9716;53.114;18.040;2022-12-05T10:14:12;47.03;;;18.20;;
19167;SDS011;9716;53.114;18.040;2022-12-05T10:16:57;45.53;;;18.13;;
19167;SDS011;9716;53.114;18.040;2022-12-05T10:19:30;34.83;;;16.13;;
19167;SDS011;9716;53.114;18.040;2022-12-05T10:22:08;36.30;;;15.27;;
19167;SDS011;9716;53.114;18.040;2022-12-05T10:24:47;34.50;;;14.87;;
19167;SDS011;9716;53.114;18.040;2022-12-05T10:27:19;41.60;;;13.87;;
19167;SDS011;9716;53.114;18.040;2022-12-05T10:29:56;33.97;;;14.47;;
19167;SDS011;9716;53.114;18.040;2022-12-05T10:32:31;40.53;;;15.90;;
19167;SDS011;9716;53.114;18.040;2022-12-05T10:35:13;40.77;;;16.43;;
19167;SDS011;9716;53.114;18.040;2022-12-05T10:37:45;36.50;;;16.40;;
19167;SDS011;9716;53.114;18.040;2022-12-05T10:40:15;35.20;;;14.70;;
19167;SDS011;9716;53.114;18.040;2022-12-05T10:42:44;30.73;;;14.43;;
19167;SDS011;9716;53.114;18.040;2022-12-05T10:45:16;39.63;;;14.17;;
19167;SDS011;9716;53.114;18.040;2022-12-05T10:47:49;49.67;;;16.23;;
19167;SDS011;9716;53.114;18.040;2022-12-05T10:50:23;51.97;;;18.37;;
19167;SDS011;9716;53.114;18.040;2022-12-05T10:52:55;52.93;;;17.60;;
19167;SDS011;9716;53.114;18.040;2022-12-05T10:55:27;36.10;;;15.93;;
19167;SDS011;9716;53.114;18.040;2022-12-05T10:58:08;43.40;;;17.63;;
19167;SDS011;9716;53.114;18.040;2022-12-05T11:00:44;39.63;;;15.87;;
19167;SDS011;9716;53.114;18.040;2022-12-05T11:03:21;33.70;;;15.40;;
19167;SDS011;9716;53.114;18.040;2022-12-05T11:05:55;38.77;;;16.50;;
19167;SDS011;9716;53.114;18.040;2022-12-05T11:08:27;45.43;;;15.83;;
19167;SDS011;9716;53.114;18.040;2022-12-05T11:11:18;30.07;;;13.37;;
19167;SDS011;9716;53.114;18.040;2022-12-05T11:13:53;36.87;;;15.10;;
19167;SDS011;9716;53.114;18.040;2022-12-05T11:16:23;39.43;;;14.70;;
19167;SDS011;9716;53.114;18.040;2022-12-05T11:18:57;33.30;;;13.43;;
19167;SDS011;9716;53.114;18.040;2022-12-05T11:21:46;43.77;;;17.03;;
19167;SDS011;9716;53.114;18.040;2022-12-05T11:24:19;34.23;;;16.47;;
19167;SDS011;9716;53.114;18.040;2022-12-05T11:26:49;48.13;;;17.17;;
19167;SDS011;9716;53.114;18.040;2022-12-05T11:29:31;40.17;;;17.47;;
19167;SDS011;9716;53.114;18.040;2022-12-05T11:32:02;37.03;;;16.47;;
19167;SDS011;9716;53.114;18.040;2022-12-05T11:34:36;45.40;;;17.13;;
19167;SDS011;9716;53.114;18.040;2022-12-05T11:37:10;39.03;;;17.80;;
19167;SDS011;9716;53.114;18.040;2022-12-05T11:39:41;40.00;;;16.83;;
19167;SDS011;9716;53.114;18.040;2022-12-05T11:42:15;40.90;;;17.03;;
19167;SDS011;9716;53.114;18.040;2022-12-05T11:44:57;41.47;;;17.70;;
19167;SDS011;9716;53.114;18.040;2022-12-05T11:47:40;37.57;;;17.20;;
19167;SDS011;9716;53.114;18.040;2022-12-05T11:50:39;39.60;;;17.77;;
19167;SDS011;9716;53.114;18.040;2022-12-05T11:53:21;50.10;;;17.97;;
19167;SDS011;9716;53.114;18.040;2022-12-05T11:56:02;43.83;;;17.20;;
19167;SDS011;9716;53.114;18.040;2022-12-05T11:58:49;35.57;;;16.47;;
19167;SDS011;9716;53.114;18.040;2022-12-05T12:01:31;43.33;;;17.47;;
19167;SDS011;9716;53.114;18.040;2022-12-05T12:04:14;38.63;;;17.87;;
19167;SDS011;9716;53.114;18.040;2022-12-05T12:07:17;41.93;;;18.17;;
19167;SDS011;9716;53.114;18.040;2022-12-05T12:09:57;46.43;;;19.07;;
19167;SDS011;9716;53.114;18.040;2022-12-05T12:12:38;44.43;;;17.30;;
19167;SDS011;9716;53.114;18.040;2022-12-05T12:18:23;43.03;;;18.70;;
19167;SDS011;9716;53.114;18.040;2022-12-05T12:21:08;36.87;;;16.97;;
19167;SDS011;9716;53.114;18.040;2022-12-05T12:23:50;43.70;;;16.97;;
19167;SDS011;9716;53.114;18.040;2022-12-05T12:26:32;36.73;;;16.33;;
19167;SDS011;9716;53.114;18.040;2022-12-05T12:29:13;36.17;;;16.20;;
19167;SDS011;9716;53.114;18.040;2022-12-05T12:31:54;37.07;;;14.80;;
19167;SDS011;9716;53.114;18.040;2022-12-05T12:34:35;28.20;;;13.43;;
19167;SDS011;9716;53.114;18.040;2022-12-05T12:37:18;33.93;;;15.07;;
19167;SDS011;9716;53.114;18.040;2022-12-05T12:39:54;37.43;;;15.20;;
19167;SDS011;9716;53.114;18.040;2022-12-05T12:42:27;45.53;;;17.47;;
19167;SDS011;9716;53.114;18.040;2022-12-05T12:45:22;33.03;;;14.73;;
19167;SDS011;9716;53.114;18.040;2022-12-05T12:48:17;33.27;;;15.00;;
19167;SDS011;9716;53.114;18.040;2022-12-05T12:50:56;31.67;;;15.20;;
19167;SDS011;9716;53.114;18.040;2022-12-05T12:56:36;33.20;;;14.63;;
19167;SDS011;9716;53.114;18.040;2022-12-05T13:02:12;38.83;;;13.60;;
19167;SDS011;9716;53.114;18.040;2022-12-05T13:04:47;31.93;;;14.77;;
19167;SDS011;9716;53.114;18.040;2022-12-05T13:07:21;36.77;;;12.83;;
19167;SDS011;9716;53.114;18.040;2022-12-05T13:09:55;27.77;;;13.60;;
19167;SDS011;9716;53.114;18.040;2022-12-05T13:12:29;31.77;;;13.57;;
19167;SDS011;9716;53.114;18.040;2022-12-05T13:15:02;32.07;;;13.70;;
19167;SDS011;9716;53.114;18.040;2022-12-05T13:17:37;33.53;;;12.67;;
19167;SDS011;9716;53.114;18.040;2022-12-05T13:20:12;33.97;;;14.10;;
19167;SDS011;9716;53.114;18.040;2022-12-05T13:22:43;29.13;;;13.50;;
19167;SDS011;9716;53.114;18.040;2022-12-05T13:25:13;35.10;;;13.40;;
19167;SDS011;9716;53.114;18.040;2022-12-05T13:27:53;31.10;;;12.37;;
19167;SDS011;9716;53.114;18.040;2022-12-05T13:30:25;40.93;;;14.53;;
19167;SDS011;9716;53.114;18.040;2022-12-05T13:32:54;30.90;;;13.47;;
19167;SDS011;9716;53.114;18.040;2022-12-05T13:35:27;32.23;;;14.10;;
19167;SDS011;9716;53.114;18.040;2022-12-05T13:38:19;41.20;;;14.37;;
19167;SDS011;9716;53.114;18.040;2022-12-05T13:41:07;31.27;;;14.77;;
19167;SDS011;9716;53.114;18.040;2022-12-05T13:43:55;32.40;;;14.60;;
19167;SDS011;9716;53.114;18.040;2022-12-05T13:46:33;43.17;;;16.17;;
19167;SDS011;9716;53.114;18.040;2022-12-05T13:49:07;40.40;;;16.13;;
19167;SDS011;9716;53.114;18.040;2022-12-05T13:51:44;38.70;;;15.60;;
19167;SDS011;9716;53.114;18.040;2022-12-05T13:54:14;41.50;;;17.73;;
19167;SDS011;9716;53.114;18.040;2022-12-05T13:56:46;39.57;;;14.97;;
19167;SDS011;9716;53.114;18.040;2022-12-05T14:02:51;38.07;;;16.70;;
19167;SDS011;9716;53.114;18.040;2022-12-05T14:05:34;42.10;;;16.67;;
19167;SDS011;9716;53.114;18.040;2022-12-05T14:11:12;35.80;;;18.07;;
19167;SDS011;9716;53.114;18.040;2022-12-05T14:13:42;36.13;;;17.60;;
19167;SDS011;9716;53.114;18.040;2022-12-05T14:19:26;52.60;;;18.97;;
19167;SDS011;9716;53.114;18.040;2022-12-05T14:22:30;48.77;;;19.30;;
19167;SDS011;9716;53.114;18.040;2022-12-05T14:25:21;46.53;;;19.70;;
19167;SDS011;9716;53.114;18.040;2022-12-05T14:28:00;40.37;;;18.37;;
19167;SDS011;9716;53.114;18.040;2022-12-05T14:30:41;49.67;;;17.77;;
19167;SDS011;9716;53.114;18.040;2022-12-05T14:33:20;47.47;;;20.33;;
19167;SDS011;9716;53.114;18.040;2022-12-05T14:35:50;42.07;;;18.27;;
19167;SDS011;9716;53.114;18.040;2022-12-05T14:38:21;42.83;;;19.40;;
19167;SDS011;9716;53.114;18.040;2022-12-05T14:40:54;61.83;;;22.83;;
19167;SDS011;9716;53.114;18.040;2022-12-05T14:43:32;56.73;;;21.97;;
19167;SDS011;9716;53.114;18.040;2022-12-05T14:46:02;56.33;;;20.83;;
19167;SDS011;9716;53.114;18.040;2022-12-05T14:48:36;46.97;;;19.10;;
19167;SDS011;9716;53.114;18.040;2022-12-05T14:54:22;48.10;;;19.47;;
19167;SDS011;9716;53.114;18.040;2022-12-05T14:56:59;44.93;;;18.40;;
19167;SDS011;9716;53.114;18.040;2022-12-05T14:59:35;44.43;;;17.97;;
19167;SDS011;9716;53.114;18.040;2022-12-05T15:02:15;44.10;;;18.60;;
19167;SDS011;9716;53.114;18.040;2022-12-05T15:04:51;40.47;;;17.37;;
19167;SDS011;9716;53.114;18.040;2022-12-05T15:07:26;47.87;;;17.73;;
19167;SDS011;9716;53.114;18.040;2022-12-05T15:10:00;45.50;;;16.27;;
19167;SDS011;9716;53.114;18.040;2022-12-05T15:12:32;38.13;;;18.40;;
19167;SDS011;9716;53.114;18.040;2022-12-05T15:15:10;38.73;;;16.00;;
19167;SDS011;9716;53.114;18.040;2022-12-05T15:17:44;44.13;;;16.00;;
19167;SDS011;9716;53.114;18.040;2022-12-05T15:20:20;38.53;;;16.57;;
19167;SDS011;9716;53.114;18.040;2022-12-05T15:26:11;42.93;;;15.47;;
19167;SDS011;9716;53.114;18.040;2022-12-05T15:29:07;41.20;;;16.93;;
19167;SDS011;9716;53.114;18.040;2022-12-05T15:31:39;35.83;;;15.40;;